sensor_id;sensor_type;location;lat;lon;timestamp;P1;durP1;ratioP1;P2;durP2;ratioP2
78288;SDS011;67539;48.752;12.922;2024-02-14T00:01:10;9.90;;;7.27;;
78288;SDS011;67539;48.752;12.922;2024-02-14T00:03:38;9.80;;;7.83;;
78288;SDS011;67539;48.752;12.922;2024-02-14T00:06:06;11.67;;;8.17;;
78288;SDS011;67539;48.752;12.922;2024-02-14T00:08:35;9.00;;;8.00;;
78288;SDS011;67539;48.752;12.922;2024-02-14T00:11:04;9.80;;;8.43;;
78288;SDS011;67539;48.752;12.922;2024-02-14T00:13:33;9.77;;;8.53;;
78288;SDS011;67539;48.752;12.922;2024-02-14T00:16:01;9.87;;;7.53;;
78288;SDS011;67539;48.752;12.922;2024-02-14T00:18:31;9.27;;;8.37;;
78288;SDS011;67539;48.752;12.922;2024-02-14T00:21:00;10.57;;;8.53;;
78288;SDS011;67539;48.752;12.922;2024-02-14T00:23:28;10.30;;;8.30;;
78288;SDS011;67539;48.752;12.922;2024-02-14T00:25:57;10.97;;;7.97;;
78288;SDS011;67539;48.752;12.922;2024-02-14T00:28:25;12.10;;;9.17;;
78288;SDS011;67539;48.752;12.922;2024-02-14T00:30:54;11.27;;;8.17;;
78288;SDS011;67539;48.752;12.922;2024-02-14T00:33:22;11.30;;;8.37;;
78288;SDS011;67539;48.752;12.922;2024-02-14T00:35:52;11.57;;;8.17;;
78288;SDS011;67539;48.752;12.922;2024-02-14T00:38:20;11.17;;;8.70;;
78288;SDS011;67539;48.752;12.922;2024-02-14T00:40:49;9.57;;;8.13;;
78288;SDS011;67539;48.752;12.922;2024-02-14T00:43:17;9.63;;;8.63;;
78288;SDS011;67539;48.752;12.922;2024-02-14T00:45:45;10.30;;;9.20;;
78288;SDS011;67539;48.752;12.922;2024-02-14T00:48:14;9.97;;;7.93;;
78288;SDS011;67539;48.752;12.922;2024-02-14T00:50:42;10.47;;;8.97;;
78288;SDS011;67539;48.752;12.922;2024-02-14T00:53:13;10.17;;;9.27;;
78288;SDS011;67539;48.752;12.922;2024-02-14T00:55:41;9.90;;;8.87;;
78288;SDS011;67539;48.752;12.922;2024-02-14T00:58:09;11.87;;;8.33;;
78288;SDS011;67539;48.752;12.922;2024-02-14T01:00:37;11.43;;;8.90;;
78288;SDS011;67539;48.752;12.922;2024-02-14T01:03:06;11.67;;;8.50;;
78288;SDS011;67539;48.752;12.922;2024-02-14T01:05:34;10.33;;;8.50;;
78288;SDS011;67539;48.752;12.922;2024-02-14T01:08:03;10.67;;;8.47;;
78288;SDS011;67539;48.752;12.922;2024-02-14T01:10:33;8.90;;;7.83;;
78288;SDS011;67539;48.752;12.922;2024-02-14T01:13:01;10.63;;;8.70;;
78288;SDS011;67539;48.752;12.922;2024-02-14T01:15:30;11.33;;;8.93;;
78288;SDS011;67539;48.752;12.922;2024-02-14T01:17:58;11.37;;;8.53;;
78288;SDS011;67539;48.752;12.922;2024-02-14T01:20:26;10.77;;;8.40;;
78288;SDS011;67539;48.752;12.922;2024-02-14T01:22:55;9.13;;;7.97;;
78288;SDS011;67539;48.752;12.922;2024-02-14T01:25:23;9.27;;;8.23;;
78288;SDS011;67539;48.752;12.922;2024-02-14T01:27:52;9.60;;;8.60;;
78288;SDS011;67539;48.752;12.922;2024-02-14T01:30:21;11.53;;;9.07;;
78288;SDS011;67539;48.752;12.922;2024-02-14T01:32:51;13.83;;;9.10;;
78288;SDS011;67539;48.752;12.922;2024-02-14T01:35:20;11.50;;;9.37;;
78288;SDS011;67539;48.752;12.922;2024-02-14T01:37:49;11.03;;;8.33;;
78288;SDS011;67539;48.752;12.922;2024-02-14T01:40:19;12.73;;;8.87;;
78288;SDS011;67539;48.752;12.922;2024-02-14T01:42:47;11.27;;;8.57;;
78288;SDS011;67539;48.752;12.922;2024-02-14T01:45:15;10.70;;;8.90;;
78288;SDS011;67539;48.752;12.922;2024-02-14T01:47:44;10.23;;;9.03;;
78288;SDS011;67539;48.752;12.922;2024-02-14T01:50:13;9.57;;;8.57;;
78288;SDS011;67539;48.752;12.922;2024-02-14T01:52:41;11.20;;;8.83;;
78288;SDS011;67539;48.752;12.922;2024-02-14T01:55:10;10.90;;;8.70;;
78288;SDS011;67539;48.752;12.922;2024-02-14T01:57:41;9.03;;;8.13;;
78288;SDS011;67539;48.752;12.922;2024-02-14T02:00:09;10.57;;;9.47;;
78288;SDS011;67539;48.752;12.922;2024-02-14T02:02:45;10.03;;;8.97;;
78288;SDS011;67539;48.752;12.922;2024-02-14T02:05:18;12.93;;;10.03;;
78288;SDS011;67539;48.752;12.922;2024-02-14T02:07:47;11.27;;;9.20;;
78288;SDS011;67539;48.752;12.922;2024-02-14T02:10:16;13.23;;;9.63;;
78288;SDS011;67539;48.752;12.922;2024-02-14T02:12:44;15.10;;;9.93;;
78288;SDS011;67539;48.752;12.922;2024-02-14T02:15:12;12.37;;;10.10;;
78288;SDS011;67539;48.752;12.922;2024-02-14T02:17:41;13.33;;;9.87;;
78288;SDS011;67539;48.752;12.922;2024-02-14T02:20:13;11.13;;;9.97;;
78288;SDS011;67539;48.752;12.922;2024-02-14T02:22:46;12.20;;;9.63;;
78288;SDS011;67539;48.752;12.922;2024-02-14T02:25:15;12.33;;;10.23;;
78288;SDS011;67539;48.752;12.922;2024-02-14T02:27:44;12.33;;;10.97;;
78288;SDS011;67539;48.752;12.922;2024-02-14T02:30:12;11.90;;;10.40;;
78288;SDS011;67539;48.752;12.922;2024-02-14T02:32:41;13.33;;;11.13;;
78288;SDS011;67539;48.752;12.922;2024-02-14T02:35:10;11.97;;;10.47;;
78288;SDS011;67539;48.752;12.922;2024-02-14T02:37:38;11.27;;;10.00;;
78288;SDS011;67539;48.752;12.922;2024-02-14T02:40:08;12.80;;;10.37;;
78288;SDS011;67539;48.752;12.922;2024-02-14T02:42:39;13.73;;;10.83;;
78288;SDS011;67539;48.752;12.922;2024-02-14T02:45:07;12.27;;;10.27;;
78288;SDS011;67539;48.752;12.922;2024-02-14T02:47:36;12.03;;;9.93;;
78288;SDS011;67539;48.752;12.922;2024-02-14T02:50:05;11.80;;;9.10;;
78288;SDS011;67539;48.752;12.922;2024-02-14T02:52:34;10.77;;;9.77;;
78288;SDS011;67539;48.752;12.922;2024-02-14T02:55:02;11.93;;;9.43;;
78288;SDS011;67539;48.752;12.922;2024-02-14T02:57:32;11.87;;;9.60;;
78288;SDS011;67539;48.752;12.922;2024-02-14T03:00:03;9.53;;;8.53;;
78288;SDS011;67539;48.752;12.922;2024-02-14T03:02:35;10.43;;;9.07;;
78288;SDS011;67539;48.752;12.922;2024-02-14T03:05:05;10.43;;;8.83;;
78288;SDS011;67539;48.752;12.922;2024-02-14T03:07:37;10.63;;;9.57;;
78288;SDS011;67539;48.752;12.922;2024-02-14T03:10:06;11.80;;;8.37;;
78288;SDS011;67539;48.752;12.922;2024-02-14T03:12:36;10.50;;;9.37;;
78288;SDS011;67539;48.752;12.922;2024-02-14T03:15:05;10.03;;;8.67;;
78288;SDS011;67539;48.752;12.922;2024-02-14T03:17:37;13.30;;;9.00;;
78288;SDS011;67539;48.752;12.922;2024-02-14T03:20:05;9.87;;;8.80;;
78288;SDS011;67539;48.752;12.922;2024-02-14T03:22:43;12.63;;;9.60;;
78288;SDS011;67539;48.752;12.922;2024-02-14T03:25:13;9.50;;;8.60;;
78288;SDS011;67539;48.752;12.922;2024-02-14T03:27:44;11.70;;;8.80;;
78288;SDS011;67539;48.752;12.922;2024-02-14T03:30:14;12.63;;;9.97;;
78288;SDS011;67539;48.752;12.922;2024-02-14T03:32:44;15.53;;;9.97;;
78288;SDS011;67539;48.752;12.922;2024-02-14T03:35:13;12.63;;;9.90;;
78288;SDS011;67539;48.752;12.922;2024-02-14T03:37:42;10.57;;;9.10;;
78288;SDS011;67539;48.752;12.922;2024-02-14T03:40:15;9.70;;;8.50;;
78288;SDS011;67539;48.752;12.922;2024-02-14T03:42:45;12.10;;;9.73;;
78288;SDS011;67539;48.752;12.922;2024-02-14T03:45:13;11.57;;;8.90;;
78288;SDS011;67539;48.752;12.922;2024-02-14T03:47:41;10.77;;;9.67;;
78288;SDS011;67539;48.752;12.922;2024-02-14T03:50:10;10.50;;;8.80;;
78288;SDS011;67539;48.752;12.922;2024-02-14T03:52:38;11.13;;;9.47;;
78288;SDS011;67539;48.752;12.922;2024-02-14T03:55:09;11.83;;;9.43;;
78288;SDS011;67539;48.752;12.922;2024-02-14T03:57:39;15.60;;;10.40;;
78288;SDS011;67539;48.752;12.922;2024-02-14T04:00:10;10.00;;;8.73;;
78288;SDS011;67539;48.752;12.922;2024-02-14T04:02:39;27.63;;;18.50;;
78288;SDS011;67539;48.752;12.922;2024-02-14T04:05:08;13.77;;;10.40;;
78288;SDS011;67539;48.752;12.922;2024-02-14T04:07:36;12.00;;;8.87;;
78288;SDS011;67539;48.752;12.922;2024-02-14T04:10:05;11.53;;;8.97;;
78288;SDS011;67539;48.752;12.922;2024-02-14T04:12:35;10.80;;;8.53;;
78288;SDS011;67539;48.752;12.922;2024-02-14T04:15:04;10.97;;;8.90;;
78288;SDS011;67539;48.752;12.922;2024-02-14T04:17:34;12.43;;;8.47;;
78288;SDS011;67539;48.752;12.922;2024-02-14T04:20:03;11.30;;;9.37;;
78288;SDS011;67539;48.752;12.922;2024-02-14T04:22:32;11.13;;;8.90;;
78288;SDS011;67539;48.752;12.922;2024-02-14T04:25:00;10.23;;;9.00;;
78288;SDS011;67539;48.752;12.922;2024-02-14T04:27:29;12.77;;;9.90;;
78288;SDS011;67539;48.752;12.922;2024-02-14T04:29:57;11.37;;;9.73;;
78288;SDS011;67539;48.752;12.922;2024-02-14T04:32:25;11.63;;;10.27;;
78288;SDS011;67539;48.752;12.922;2024-02-14T04:34:55;12.13;;;10.67;;
78288;SDS011;67539;48.752;12.922;2024-02-14T04:37:24;12.53;;;9.20;;
78288;SDS011;67539;48.752;12.922;2024-02-14T04:39:53;11.20;;;9.20;;
78288;SDS011;67539;48.752;12.922;2024-02-14T04:42:21;11.20;;;9.53;;
78288;SDS011;67539;48.752;12.922;2024-02-14T04:44:49;11.60;;;9.70;;
78288;SDS011;67539;48.752;12.922;2024-02-14T04:47:18;11.13;;;9.47;;
78288;SDS011;67539;48.752;12.922;2024-02-14T04:49:47;12.87;;;9.43;;
78288;SDS011;67539;48.752;12.922;2024-02-14T04:52:16;12.57;;;10.03;;
78288;SDS011;67539;48.752;12.922;2024-02-14T04:54:45;10.97;;;9.33;;
78288;SDS011;67539;48.752;12.922;2024-02-14T04:57:17;10.50;;;9.43;;
78288;SDS011;67539;48.752;12.922;2024-02-14T04:59:46;11.60;;;9.83;;
78288;SDS011;67539;48.752;12.922;2024-02-14T05:02:15;10.40;;;9.07;;
78288;SDS011;67539;48.752;12.922;2024-02-14T05:04:43;12.60;;;10.33;;
78288;SDS011;67539;48.752;12.922;2024-02-14T05:07:11;11.57;;;9.97;;
78288;SDS011;67539;48.752;12.922;2024-02-14T05:09:41;11.90;;;10.40;;
78288;SDS011;67539;48.752;12.922;2024-02-14T05:12:10;12.33;;;10.20;;
78288;SDS011;67539;48.752;12.922;2024-02-14T05:14:39;11.97;;;9.97;;
78288;SDS011;67539;48.752;12.922;2024-02-14T05:17:07;12.80;;;11.00;;
78288;SDS011;67539;48.752;12.922;2024-02-14T05:19:35;13.97;;;10.53;;
78288;SDS011;67539;48.752;12.922;2024-02-14T05:22:04;13.13;;;10.43;;
78288;SDS011;67539;48.752;12.922;2024-02-14T05:24:32;13.40;;;10.70;;
78288;SDS011;67539;48.752;12.922;2024-02-14T05:27:03;14.43;;;10.60;;
78288;SDS011;67539;48.752;12.922;2024-02-14T05:29:32;12.37;;;10.23;;
78288;SDS011;67539;48.752;12.922;2024-02-14T05:32:02;10.67;;;9.60;;
78288;SDS011;67539;48.752;12.922;2024-02-14T05:34:31;10.03;;;8.67;;
78288;SDS011;67539;48.752;12.922;2024-02-14T05:37:00;12.13;;;9.63;;
78288;SDS011;67539;48.752;12.922;2024-02-14T05:39:29;10.03;;;9.03;;
78288;SDS011;67539;48.752;12.922;2024-02-14T05:41:57;14.97;;;9.63;;
78288;SDS011;67539;48.752;12.922;2024-02-14T05:44:28;11.60;;;9.53;;
78288;SDS011;67539;48.752;12.922;2024-02-14T05:46:57;10.67;;;9.00;;
78288;SDS011;67539;48.752;12.922;2024-02-14T05:49:25;11.87;;;9.23;;
78288;SDS011;67539;48.752;12.922;2024-02-14T05:51:53;10.33;;;9.23;;
78288;SDS011;67539;48.752;12.922;2024-02-14T05:54:22;12.20;;;9.07;;
78288;SDS011;67539;48.752;12.922;2024-02-14T05:56:50;10.93;;;8.93;;
78288;SDS011;67539;48.752;12.922;2024-02-14T05:59:18;11.40;;;9.57;;
78288;SDS011;67539;48.752;12.922;2024-02-14T06:01:49;10.10;;;9.03;;
78288;SDS011;67539;48.752;12.922;2024-02-14T06:04:17;9.80;;;8.70;;
78288;SDS011;67539;48.752;12.922;2024-02-14T06:06:45;10.87;;;9.03;;
78288;SDS011;67539;48.752;12.922;2024-02-14T06:09:14;11.37;;;9.23;;
78288;SDS011;67539;48.752;12.922;2024-02-14T06:11:42;12.07;;;9.03;;
78288;SDS011;67539;48.752;12.922;2024-02-14T06:14:10;10.47;;;8.97;;
78288;SDS011;67539;48.752;12.922;2024-02-14T06:16:38;10.03;;;9.03;;
78288;SDS011;67539;48.752;12.922;2024-02-14T06:19:08;12.60;;;10.67;;
78288;SDS011;67539;48.752;12.922;2024-02-14T06:21:38;14.40;;;11.83;;
78288;SDS011;67539;48.752;12.922;2024-02-14T06:24:06;12.67;;;11.20;;
78288;SDS011;67539;48.752;12.922;2024-02-14T06:26:37;19.00;;;13.03;;
78288;SDS011;67539;48.752;12.922;2024-02-14T06:29:05;16.87;;;13.03;;
78288;SDS011;67539;48.752;12.922;2024-02-14T06:31:33;16.40;;;12.30;;
78288;SDS011;67539;48.752;12.922;2024-02-14T06:34:01;12.73;;;10.97;;
78288;SDS011;67539;48.752;12.922;2024-02-14T06:36:31;15.53;;;11.53;;
78288;SDS011;67539;48.752;12.922;2024-02-14T06:39:00;14.27;;;10.53;;
78288;SDS011;67539;48.752;12.922;2024-02-14T06:41:28;14.73;;;12.00;;
78288;SDS011;67539;48.752;12.922;2024-02-14T06:43:58;14.50;;;12.07;;
78288;SDS011;67539;48.752;12.922;2024-02-14T06:46:26;18.77;;;12.57;;
78288;SDS011;67539;48.752;12.922;2024-02-14T06:48:54;17.93;;;14.27;;
78288;SDS011;67539;48.752;12.922;2024-02-14T06:51:24;18.63;;;14.43;;
78288;SDS011;67539;48.752;12.922;2024-02-14T06:53:53;16.80;;;13.40;;
78288;SDS011;67539;48.752;12.922;2024-02-14T06:56:22;12.83;;;10.77;;
78288;SDS011;67539;48.752;12.922;2024-02-14T06:58:50;11.87;;;9.53;;
78288;SDS011;67539;48.752;12.922;2024-02-14T07:01:20;11.10;;;9.20;;
78288;SDS011;67539;48.752;12.922;2024-02-14T07:03:49;9.57;;;8.57;;
78288;SDS011;67539;48.752;12.922;2024-02-14T07:06:17;10.73;;;8.90;;
78288;SDS011;67539;48.752;12.922;2024-02-14T07:08:46;12.27;;;9.33;;
78288;SDS011;67539;48.752;12.922;2024-02-14T07:11:16;11.70;;;9.67;;
78288;SDS011;67539;48.752;12.922;2024-02-14T07:13:45;11.60;;;10.07;;
78288;SDS011;67539;48.752;12.922;2024-02-14T07:16:13;13.73;;;10.27;;
78288;SDS011;67539;48.752;12.922;2024-02-14T07:18:41;12.70;;;9.17;;
78288;SDS011;67539;48.752;12.922;2024-02-14T07:21:10;14.13;;;10.13;;
78288;SDS011;67539;48.752;12.922;2024-02-14T07:23:38;12.13;;;9.90;;
78288;SDS011;67539;48.752;12.922;2024-02-14T07:26:07;12.23;;;10.40;;
78288;SDS011;67539;48.752;12.922;2024-02-14T07:28:37;12.03;;;10.20;;
78288;SDS011;67539;48.752;12.922;2024-02-14T07:31:05;13.17;;;10.47;;
78288;SDS011;67539;48.752;12.922;2024-02-14T07:33:33;10.97;;;9.10;;
78288;SDS011;67539;48.752;12.922;2024-02-14T07:36:01;11.63;;;9.33;;
78288;SDS011;67539;48.752;12.922;2024-02-14T07:38:30;11.10;;;9.97;;
78288;SDS011;67539;48.752;12.922;2024-02-14T07:40:58;12.37;;;10.47;;
78288;SDS011;67539;48.752;12.922;2024-02-14T07:43:26;11.80;;;10.07;;
78288;SDS011;67539;48.752;12.922;2024-02-14T07:45:56;12.50;;;10.03;;
78288;SDS011;67539;48.752;12.922;2024-02-14T07:48:24;10.80;;;9.00;;
78288;SDS011;67539;48.752;12.922;2024-02-14T07:50:53;10.47;;;9.37;;
78288;SDS011;67539;48.752;12.922;2024-02-14T07:53:22;11.23;;;10.07;;
78288;SDS011;67539;48.752;12.922;2024-02-14T07:55:50;11.37;;;10.17;;
78288;SDS011;67539;48.752;12.922;2024-02-14T07:58:19;12.37;;;10.67;;
78288;SDS011;67539;48.752;12.922;2024-02-14T08:00:47;14.00;;;10.57;;
78288;SDS011;67539;48.752;12.922;2024-02-14T08:03:16;11.97;;;9.40;;
78288;SDS011;67539;48.752;12.922;2024-02-14T08:05:45;12.57;;;9.73;;
78288;SDS011;67539;48.752;12.922;2024-02-14T08:08:13;11.00;;;9.03;;
78288;SDS011;67539;48.752;12.922;2024-02-14T08:10:41;13.00;;;10.40;;
78288;SDS011;67539;48.752;12.922;2024-02-14T08:13:09;11.30;;;9.10;;
78288;SDS011;67539;48.752;12.922;2024-02-14T08:15:41;12.17;;;9.83;;
78288;SDS011;67539;48.752;12.922;2024-02-14T08:18:09;12.63;;;9.53;;
78288;SDS011;67539;48.752;12.922;2024-02-14T08:20:40;11.37;;;8.67;;
78288;SDS011;67539;48.752;12.922;2024-02-14T08:23:09;12.23;;;9.93;;
78288;SDS011;67539;48.752;12.922;2024-02-14T08:25:37;10.60;;;9.48;;
78288;SDS011;67539;48.752;12.922;2024-02-14T08:28:07;10.13;;;9.13;;
78288;SDS011;67539;48.752;12.922;2024-02-14T08:30:36;11.40;;;9.68;;
78288;SDS011;67539;48.752;12.922;2024-02-14T08:33:05;13.57;;;9.63;;
78288;SDS011;67539;48.752;12.922;2024-02-14T08:35:33;12.57;;;9.63;;
78288;SDS011;67539;48.752;12.922;2024-02-14T08:38:09;11.27;;;9.18;;
78288;SDS011;67539;48.752;12.922;2024-02-14T08:40:38;11.40;;;9.50;;
78288;SDS011;67539;48.752;12.922;2024-02-14T08:43:06;10.55;;;9.13;;
78288;SDS011;67539;48.752;12.922;2024-02-14T08:45:34;10.40;;;9.40;;
78288;SDS011;67539;48.752;12.922;2024-02-14T08:48:04;9.88;;;8.55;;
78288;SDS011;67539;48.752;12.922;2024-02-14T08:50:34;11.43;;;8.60;;
78288;SDS011;67539;48.752;12.922;2024-02-14T08:53:03;9.73;;;8.73;;
78288;SDS011;67539;48.752;12.922;2024-02-14T08:55:33;12.00;;;8.50;;
78288;SDS011;67539;48.752;12.922;2024-02-14T08:58:01;10.20;;;8.23;;
78288;SDS011;67539;48.752;12.922;2024-02-14T09:00:29;10.50;;;8.55;;
78288;SDS011;67539;48.752;12.922;2024-02-14T09:02:58;9.32;;;8.10;;
78288;SDS011;67539;48.752;12.922;2024-02-14T09:05:26;9.50;;;7.85;;
78288;SDS011;67539;48.752;12.922;2024-02-14T09:07:56;9.00;;;8.00;;
78288;SDS011;67539;48.752;12.922;2024-02-14T09:10:25;11.18;;;8.10;;
78288;SDS011;67539;48.752;12.922;2024-02-14T09:12:55;9.88;;;8.40;;
78288;SDS011;67539;48.752;12.922;2024-02-14T09:15:23;9.02;;;8.13;;
78288;SDS011;67539;48.752;12.922;2024-02-14T09:17:53;9.02;;;7.20;;
78288;SDS011;67539;48.752;12.922;2024-02-14T09:20:21;10.98;;;8.20;;
78288;SDS011;67539;48.752;12.922;2024-02-14T09:22:50;10.38;;;7.80;;
78288;SDS011;67539;48.752;12.922;2024-02-14T09:25:19;8.48;;;7.57;;
78288;SDS011;67539;48.752;12.922;2024-02-14T09:27:49;9.98;;;7.80;;
78288;SDS011;67539;48.752;12.922;2024-02-14T09:30:19;9.23;;;7.60;;
78288;SDS011;67539;48.752;12.922;2024-02-14T09:33:03;9.07;;;8.02;;
78288;SDS011;67539;48.752;12.922;2024-02-14T09:35:32;8.80;;;7.85;;
78288;SDS011;67539;48.752;12.922;2024-02-14T09:38:01;10.05;;;8.00;;
78288;SDS011;67539;48.752;12.922;2024-02-14T09:40:29;9.65;;;7.22;;
78288;SDS011;67539;48.752;12.922;2024-02-14T09:42:58;9.27;;;8.15;;
78288;SDS011;67539;48.752;12.922;2024-02-14T09:45:33;9.00;;;7.70;;
78288;SDS011;67539;48.752;12.922;2024-02-14T09:48:01;8.80;;;7.57;;
78288;SDS011;67539;48.752;12.922;2024-02-14T09:50:32;8.75;;;6.95;;
78288;SDS011;67539;48.752;12.922;2024-02-14T09:53:01;9.00;;;6.80;;
78288;SDS011;67539;48.752;12.922;2024-02-14T09:55:32;9.80;;;8.10;;
78288;SDS011;67539;48.752;12.922;2024-02-14T09:58:00;9.55;;;7.20;;
78288;SDS011;67539;48.752;12.922;2024-02-14T10:00:34;6.70;;;5.68;;
78288;SDS011;67539;48.752;12.922;2024-02-14T10:03:03;10.45;;;7.88;;
78288;SDS011;67539;48.752;12.922;2024-02-14T10:05:33;9.75;;;6.70;;
78288;SDS011;67539;48.752;12.922;2024-02-14T10:08:02;8.10;;;5.80;;
78288;SDS011;67539;48.752;12.922;2024-02-14T10:10:31;7.60;;;6.03;;
78288;SDS011;67539;48.752;12.922;2024-02-14T10:13:03;8.18;;;5.40;;
78288;SDS011;67539;48.752;12.922;2024-02-14T10:15:33;8.85;;;5.18;;
78288;SDS011;67539;48.752;12.922;2024-02-14T10:18:02;7.43;;;5.20;;
78288;SDS011;67539;48.752;12.922;2024-02-14T10:20:31;6.25;;;4.40;;
78288;SDS011;67539;48.752;12.922;2024-02-14T10:23:01;4.75;;;3.97;;
78288;SDS011;67539;48.752;12.922;2024-02-14T10:25:30;13.15;;;6.18;;
78288;SDS011;67539;48.752;12.922;2024-02-14T10:28:02;6.32;;;4.35;;
78288;SDS011;67539;48.752;12.922;2024-02-14T10:30:32;5.45;;;4.32;;
78288;SDS011;67539;48.752;12.922;2024-02-14T10:33:02;4.95;;;3.72;;
78288;SDS011;67539;48.752;12.922;2024-02-14T10:35:45;5.75;;;4.25;;
78288;SDS011;67539;48.752;12.922;2024-02-14T10:38:17;8.43;;;4.95;;
78288;SDS011;67539;48.752;12.922;2024-02-14T10:40:46;7.15;;;3.80;;
78288;SDS011;67539;48.752;12.922;2024-02-14T10:43:16;5.45;;;4.32;;
78288;SDS011;67539;48.752;12.922;2024-02-14T10:45:45;5.30;;;3.90;;
78288;SDS011;67539;48.752;12.922;2024-02-14T10:48:13;7.03;;;4.43;;
78288;SDS011;67539;48.752;12.922;2024-02-14T10:50:43;4.07;;;3.35;;
78288;SDS011;67539;48.752;12.922;2024-02-14T10:53:13;5.53;;;3.70;;
78288;SDS011;67539;48.752;12.922;2024-02-14T10:55:44;6.28;;;4.28;;
78288;SDS011;67539;48.752;12.922;2024-02-14T10:58:15;4.60;;;3.50;;
78288;SDS011;67539;48.752;12.922;2024-02-14T11:00:46;4.40;;;3.67;;
78288;SDS011;67539;48.752;12.922;2024-02-14T11:03:15;5.93;;;4.03;;
78288;SDS011;67539;48.752;12.922;2024-02-14T11:05:44;5.57;;;3.60;;
78288;SDS011;67539;48.752;12.922;2024-02-14T11:08:14;6.95;;;3.85;;
78288;SDS011;67539;48.752;12.922;2024-02-14T11:10:42;6.28;;;4.13;;
78288;SDS011;67539;48.752;12.922;2024-02-14T11:13:12;5.22;;;3.33;;
78288;SDS011;67539;48.752;12.922;2024-02-14T11:15:45;4.57;;;3.58;;
78288;SDS011;67539;48.752;12.922;2024-02-14T11:18:14;4.15;;;3.65;;
78288;SDS011;67539;48.752;12.922;2024-02-14T11:20:53;3.88;;;2.72;;
78288;SDS011;67539;48.752;12.922;2024-02-14T11:23:23;5.25;;;3.47;;
78288;SDS011;67539;48.752;12.922;2024-02-14T11:25:59;5.72;;;3.30;;
78288;SDS011;67539;48.752;12.922;2024-02-14T11:28:28;4.95;;;3.50;;
78288;SDS011;67539;48.752;12.922;2024-02-14T11:30:59;4.72;;;3.30;;
78288;SDS011;67539;48.752;12.922;2024-02-14T11:33:31;5.97;;;3.55;;
78288;SDS011;67539;48.752;12.922;2024-02-14T11:36:00;4.40;;;3.22;;
78288;SDS011;67539;48.752;12.922;2024-02-14T11:38:37;4.68;;;3.00;;
78288;SDS011;67539;48.752;12.922;2024-02-14T11:41:08;4.75;;;3.13;;
78288;SDS011;67539;48.752;12.922;2024-02-14T11:43:38;4.25;;;3.38;;
78288;SDS011;67539;48.752;12.922;2024-02-14T11:46:08;4.60;;;3.42;;
78288;SDS011;67539;48.752;12.922;2024-02-14T11:48:36;5.53;;;3.65;;
78288;SDS011;67539;48.752;12.922;2024-02-14T11:51:07;4.50;;;3.20;;
78288;SDS011;67539;48.752;12.922;2024-02-14T11:53:36;3.78;;;2.97;;
78288;SDS011;67539;48.752;12.922;2024-02-14T11:56:07;4.55;;;3.00;;
78288;SDS011;67539;48.752;12.922;2024-02-14T11:58:35;6.65;;;3.05;;
78288;SDS011;67539;48.752;12.922;2024-02-14T12:01:03;3.45;;;2.95;;
78288;SDS011;67539;48.752;12.922;2024-02-14T12:03:34;5.88;;;3.00;;
78288;SDS011;67539;48.752;12.922;2024-02-14T12:06:05;3.92;;;2.72;;
78288;SDS011;67539;48.752;12.922;2024-02-14T12:08:34;5.55;;;3.92;;
78288;SDS011;67539;48.752;12.922;2024-02-14T12:11:02;3.20;;;2.78;;
78288;SDS011;67539;48.752;12.922;2024-02-14T12:13:31;5.55;;;3.42;;
78288;SDS011;67539;48.752;12.922;2024-02-14T12:16:01;4.70;;;3.17;;
78288;SDS011;67539;48.752;12.922;2024-02-14T12:18:29;3.60;;;3.05;;
78288;SDS011;67539;48.752;12.922;2024-02-14T12:21:04;3.60;;;2.72;;
78288;SDS011;67539;48.752;12.922;2024-02-14T12:23:35;4.60;;;3.33;;
78288;SDS011;67539;48.752;12.922;2024-02-14T12:26:04;4.18;;;3.10;;
78288;SDS011;67539;48.752;12.922;2024-02-14T12:28:32;4.25;;;3.28;;
78288;SDS011;67539;48.752;12.922;2024-02-14T12:31:01;4.07;;;3.25;;
78288;SDS011;67539;48.752;12.922;2024-02-14T12:33:29;4.35;;;3.33;;
78288;SDS011;67539;48.752;12.922;2024-02-14T12:35:59;3.30;;;2.50;;
78288;SDS011;67539;48.752;12.922;2024-02-14T12:38:28;4.13;;;2.80;;
78288;SDS011;67539;48.752;12.922;2024-02-14T12:40:57;4.25;;;2.88;;
78288;SDS011;67539;48.752;12.922;2024-02-14T12:43:25;5.35;;;3.03;;
78288;SDS011;67539;48.752;12.922;2024-02-14T12:45:53;3.53;;;2.70;;
78288;SDS011;67539;48.752;12.922;2024-02-14T12:48:22;5.80;;;3.08;;
78288;SDS011;67539;48.752;12.922;2024-02-14T12:50:53;5.85;;;2.90;;
78288;SDS011;67539;48.752;12.922;2024-02-14T12:53:22;4.30;;;2.92;;
78288;SDS011;67539;48.752;12.922;2024-02-14T12:55:52;4.55;;;3.28;;
78288;SDS011;67539;48.752;12.922;2024-02-14T12:58:20;4.18;;;3.00;;
78288;SDS011;67539;48.752;12.922;2024-02-14T13:00:48;6.22;;;2.83;;
78288;SDS011;67539;48.752;12.922;2024-02-14T13:03:17;3.80;;;3.00;;
78288;SDS011;67539;48.752;12.922;2024-02-14T13:05:46;5.13;;;2.67;;
78288;SDS011;67539;48.752;12.922;2024-02-14T13:08:14;2.42;;;2.17;;
78288;SDS011;67539;48.752;12.922;2024-02-14T13:10:43;4.35;;;3.13;;
78288;SDS011;67539;48.752;12.922;2024-02-14T13:13:13;3.28;;;2.97;;
78288;SDS011;67539;48.752;12.922;2024-02-14T13:15:41;4.28;;;2.92;;
78288;SDS011;67539;48.752;12.922;2024-02-14T13:18:11;4.00;;;2.80;;
78288;SDS011;67539;48.752;12.922;2024-02-14T13:20:40;4.78;;;3.00;;
78288;SDS011;67539;48.752;12.922;2024-02-14T13:23:09;3.40;;;2.75;;
78288;SDS011;67539;48.752;12.922;2024-02-14T13:25:37;4.80;;;2.92;;
78288;SDS011;67539;48.752;12.922;2024-02-14T13:28:05;4.60;;;2.67;;
78288;SDS011;67539;48.752;12.922;2024-02-14T13:30:35;5.88;;;2.80;;
78288;SDS011;67539;48.752;12.922;2024-02-14T13:33:04;4.63;;;2.90;;
78288;SDS011;67539;48.752;12.922;2024-02-14T13:35:33;5.10;;;3.13;;
78288;SDS011;67539;48.752;12.922;2024-02-14T13:38:05;5.18;;;2.88;;
78288;SDS011;67539;48.752;12.922;2024-02-14T13:40:33;4.85;;;2.97;;
78288;SDS011;67539;48.752;12.922;2024-02-14T13:43:01;4.60;;;2.83;;
78288;SDS011;67539;48.752;12.922;2024-02-14T13:45:34;3.30;;;2.75;;
78288;SDS011;67539;48.752;12.922;2024-02-14T13:48:10;4.07;;;2.90;;
78288;SDS011;67539;48.752;12.922;2024-02-14T13:50:39;6.07;;;3.22;;
78288;SDS011;67539;48.752;12.922;2024-02-14T13:53:08;3.97;;;3.15;;
78288;SDS011;67539;48.752;12.922;2024-02-14T13:55:36;5.00;;;3.10;;
78288;SDS011;67539;48.752;12.922;2024-02-14T13:58:05;4.32;;;3.20;;
78288;SDS011;67539;48.752;12.922;2024-02-14T14:00:37;5.20;;;3.40;;
78288;SDS011;67539;48.752;12.922;2024-02-14T14:03:07;5.13;;;3.42;;
78288;SDS011;67539;48.752;12.922;2024-02-14T14:05:35;5.10;;;3.83;;
78288;SDS011;67539;48.752;12.922;2024-02-14T14:08:04;4.15;;;3.50;;
78288;SDS011;67539;48.752;12.922;2024-02-14T14:10:32;4.68;;;3.38;;
78288;SDS011;67539;48.752;12.922;2024-02-14T14:13:00;4.65;;;4.07;;
78288;SDS011;67539;48.752;12.922;2024-02-14T14:15:30;5.50;;;4.00;;
78288;SDS011;67539;48.752;12.922;2024-02-14T14:17:59;5.57;;;3.85;;
78288;SDS011;67539;48.752;12.922;2024-02-14T14:20:29;8.07;;;4.05;;
78288;SDS011;67539;48.752;12.922;2024-02-14T14:22:57;5.25;;;3.20;;
78288;SDS011;67539;48.752;12.922;2024-02-14T14:25:26;6.90;;;3.92;;
78288;SDS011;67539;48.752;12.922;2024-02-14T14:27:55;5.55;;;3.72;;
78288;SDS011;67539;48.752;12.922;2024-02-14T14:30:25;5.78;;;2.83;;
78288;SDS011;67539;48.752;12.922;2024-02-14T14:32:54;6.45;;;3.10;;
78288;SDS011;67539;48.752;12.922;2024-02-14T14:35:23;5.72;;;3.60;;
78288;SDS011;67539;48.752;12.922;2024-02-14T14:37:53;5.75;;;3.10;;